Time;durP1;ratioP1;P1;durP2;ratioP2;P2;SDS_P1;SDS_P2;PMS_P1;PMS_P2;Temp;Humidity;BMP_temperature;BMP_pressure;BME280_temperature;BME280_humidity;BME280_pressure;Samples;Min_cycle;Max_cycle;Signal;HPM_P1;HPM_P2
2022/10/05 00:00:56;;;;;;;13.50;7.05;;;15.40;99.90;;;;;;4935915;28;20177;-80
2022/10/05 00:03:24;;;;;;;13.82;7.28;;;15.40;99.90;;;;;;4937084;28;20039;-82
2022/10/05 00:05:50;;;;;;;15.40;7.07;;;15.40;99.90;;;;;;4970882;28;20046;-81
2022/10/05 00:08:22;;;;;;;8.20;6.47;;;15.40;99.90;;;;;;4938592;28;20050;-82
2022/10/05 00:10:48;;;;;;;10.52;7.03;;;15.40;99.90;;;;;;4954426;28;20039;-85
2022/10/05 00:13:20;;;;;;;8.93;6.82;;;15.40;99.90;;;;;;4947357;28;21340;-81
2022/10/05 00:15:46;;;;;;;9.73;6.50;;;15.40;99.90;;;;;;4954706;28;20106;-80
2022/10/05 00:18:18;;;;;;;9.00;6.70;;;15.40;99.90;;;;;;4954367;28;20046;-81
2022/10/05 00:20:45;;;;;;;13.18;6.75;;;15.40;99.90;;;;;;4951819;28;20109;-81
2022/10/05 00:23:17;;;;;;;11.45;6.47;;;15.40;99.90;;;;;;4947748;28;20050;-81
2022/10/05 00:25:43;;;;;;;9.10;6.03;;;15.40;99.90;;;;;;4950787;28;20051;-81
2022/10/05 00:28:21;;;;;;;11.90;6.32;;;15.30;99.90;;;;;;4957908;28;20042;-82
2022/10/05 00:30:47;;;;;;;8.98;6.32;;;15.40;99.90;;;;;;4955332;28;20054;-83
2022/10/05 00:33:12;;;;;;;8.82;6.80;;;15.30;99.90;;;;;;4953503;28;20505;-82
2022/10/05 00:35:38;;;;;;;11.27;6.78;;;15.30;99.90;;;;;;4952623;28;20038;-81
2022/10/05 00:38:04;;;;;;;11.45;6.82;;;15.30;99.90;;;;;;4945796;28;20047;-85
2022/10/05 00:40:36;;;;;;;11.43;6.55;;;15.30;99.90;;;;;;4952859;28;20039;-81
2022/10/05 00:43:07;;;;;;;10.15;6.22;;;15.30;99.90;;;;;;4954380;28;20486;-81
2022/10/05 00:45:39;;;;;;;8.20;6.35;;;15.30;99.90;;;;;;4947823;28;20074;-81
2022/10/05 00:48:22;;;;;;;8.02;5.43;;;15.30;99.90;;;;;;4948674;28;20049;-81
2022/10/05 00:50:55;;;;;;;13.05;6.07;;;15.30;99.90;;;;;;4952299;28;20039;-81
2022/10/05 00:53:46;;;;;;;8.65;6.10;;;15.30;99.90;;;;;;4931650;28;20089;-81
2022/10/05 00:56:24;;;;;;;8.48;6.25;;;15.30;99.90;;;;;;4944740;28;20061;-81
2022/10/05 00:59:32;;;;;;;13.27;6.40;;;15.30;99.90;;;;;;4964844;28;20070;-81
2022/10/05 01:02:10;;;;;;;15.15;6.93;;;15.40;99.90;;;;;;4951112;28;20086;-81
2022/10/05 01:05:00;;;;;;;10.15;6.22;;;15.40;99.90;;;;;;4954708;28;20129;-82
2022/10/05 01:07:28;;;;;;;8.63;6.03;;;15.40;99.90;;;;;;4951766;28;20046;-81
2022/10/05 01:10:05;;;;;;;8.38;6.65;;;15.40;99.90;;;;;;4951219;28;20129;-81
2022/10/05 01:13:05;;;;;;;10.10;7.15;;;15.40;99.90;;;;;;4954564;28;22535;-82
2022/10/05 01:15:40;;;;;;;9.20;6.78;;;15.40;99.90;;;;;;4950792;28;20038;-81
2022/10/05 01:18:08;;;;;;;9.07;7.13;;;15.40;99.90;;;;;;4955531;28;20089;-83
2022/10/05 01:21:04;;;;;;;10.65;7.20;;;15.40;99.90;;;;;;4954208;28;20134;-82
2022/10/05 01:23:37;;;;;;;12.95;6.82;;;15.40;99.90;;;;;;4952906;28;20530;-81
2022/10/05 01:26:51;;;;;;;8.88;6.80;;;15.30;99.90;;;;;;4954475;28;20042;-81
2022/10/05 01:29:24;;;;;;;12.35;7.05;;;15.30;99.90;;;;;;4914685;29;20052;-82
2022/10/05 01:31:58;;;;;;;10.95;7.47;;;15.30;99.90;;;;;;4952969;28;20102;-81
2022/10/05 01:34:32;;;;;;;12.35;7.45;;;15.40;99.90;;;;;;4954372;28;20039;-82
2022/10/05 01:37:07;;;;;;;12.02;7.28;;;15.30;99.90;;;;;;4954924;28;20043;-81
2022/10/05 01:39:44;;;;;;;12.45;7.43;;;15.30;99.90;;;;;;4952699;28;20049;-81
2022/10/05 01:42:35;;;;;;;9.45;7.72;;;15.30;99.90;;;;;;4952604;28;20046;-82
2022/10/05 01:45:03;;;;;;;16.33;8.65;;;15.30;99.90;;;;;;4951891;28;20047;-82
2022/10/05 01:47:41;;;;;;;8.82;7.85;;;15.30;99.90;;;;;;4951229;28;20030;-81
2022/10/05 01:50:33;;;;;;;16.05;9.02;;;15.20;99.90;;;;;;4932597;28;20047;-81
2022/10/05 01:53:25;;;;;;;12.48;8.38;;;15.20;99.90;;;;;;4955043;28;20043;-81
2022/10/05 01:56:19;;;;;;;11.30;8.70;;;15.20;99.90;;;;;;4955461;28;20089;-81
2022/10/05 01:59:01;;;;;;;13.00;9.27;;;15.20;99.90;;;;;;4954878;28;20035;-81
2022/10/05 02:01:51;;;;;;;13.68;8.88;;;15.20;99.90;;;;;;4953341;28;20109;-81
2022/10/05 02:04:26;;;;;;;12.75;9.38;;;15.20;99.90;;;;;;4934552;28;20054;-81
2022/10/05 02:06:53;;;;;;;13.15;8.48;;;15.20;99.90;;;;;;4956699;28;20646;-82
2022/10/05 02:09:27;;;;;;;14.43;9.80;;;15.20;99.90;;;;;;4946355;28;20039;-82
2022/10/05 02:12:09;;;;;;;12.40;9.60;;;15.10;99.90;;;;;;4939691;28;20125;-81
2022/10/05 02:14:41;;;;;;;12.07;9.53;;;15.10;99.90;;;;;;4941883;28;20405;-82
2022/10/05 02:17:16;;;;;;;13.10;9.45;;;15.10;99.90;;;;;;4954813;28;20117;-81
2022/10/05 02:19:46;;;;;;;12.93;9.20;;;15.10;99.90;;;;;;4938421;28;20065;-80
2022/10/05 02:22:33;;;;;;;15.20;9.52;;;15.10;99.90;;;;;;4938765;28;20042;-81
2022/10/05 02:25:07;;;;;;;11.60;9.38;;;15.10;99.90;;;;;;4934847;28;20127;-81
2022/10/05 02:27:39;;;;;;;15.27;9.48;;;15.00;99.90;;;;;;4957592;28;20047;-81
2022/10/05 02:30:07;;;;;;;11.48;9.23;;;15.10;99.90;;;;;;4957878;28;20043;-81
2022/10/05 02:32:57;;;;;;;17.30;9.45;;;15.00;99.90;;;;;;4951012;28;20047;-85
2022/10/05 02:35:23;;;;;;;12.77;9.23;;;15.00;99.90;;;;;;4964481;28;20039;-82
2022/10/05 02:38:04;;;;;;;11.85;9.50;;;15.00;99.90;;;;;;4953457;28;20039;-81
2022/10/05 02:40:38;;;;;;;14.77;9.05;;;14.90;99.90;;;;;;4934399;28;20049;-81
2022/10/05 02:43:10;;;;;;;11.63;8.48;;;15.00;99.90;;;;;;4951181;28;20047;-81
2022/10/05 02:45:47;;;;;;;11.10;8.63;;;15.00;99.90;;;;;;4954487;28;20046;-81
2022/10/05 02:48:35;;;;;;;13.20;9.18;;;14.90;99.90;;;;;;4953388;28;20049;-82
2022/10/05 02:51:00;;;;;;;11.40;8.60;;;15.00;99.90;;;;;;4939325;28;20041;-81
2022/10/05 02:53:36;;;;;;;12.68;8.60;;;14.90;99.90;;;;;;4954390;28;20051;-82
2022/10/05 02:56:05;;;;;;;11.02;8.30;;;14.90;99.90;;;;;;4957948;28;20034;-82
2022/10/05 02:58:58;;;;;;;31.00;9.50;;;14.90;99.90;;;;;;4951521;28;20039;-81
2022/10/05 03:01:38;;;;;;;12.05;8.50;;;14.90;99.90;;;;;;4965335;28;20368;-82
2022/10/05 03:04:19;;;;;;;8.70;7.78;;;14.90;99.90;;;;;;4950578;28;20101;-81
2022/10/05 03:07:12;;;;;;;11.95;8.05;;;14.90;99.90;;;;;;4938934;28;20130;-80
2022/10/05 03:10:16;;;;;;;11.43;7.82;;;15.00;99.90;;;;;;4937561;28;20173;-81
2022/10/05 03:12:52;;;;;;;17.30;8.20;;;15.00;99.90;;;;;;4949844;28;20074;-81
2022/10/05 03:15:33;;;;;;;11.32;7.72;;;15.00;99.90;;;;;;4934253;28;20038;-81
2022/10/05 03:18:20;;;;;;;9.00;7.32;;;15.00;99.90;;;;;;4950735;28;20038;-81
2022/10/05 03:21:23;;;;;;;9.65;7.57;;;15.00;99.90;;;;;;4970388;28;20055;-82
2022/10/05 03:24:08;;;;;;;10.63;7.45;;;15.00;99.90;;;;;;4934791;28;20046;-81
2022/10/05 03:27:03;;;;;;;8.90;7.05;;;15.00;99.90;;;;;;4950266;28;20051;-84
2022/10/05 03:29:59;;;;;;;11.07;7.35;;;14.90;99.90;;;;;;4924543;28;20670;-83
2022/10/05 03:32:33;;;;;;;10.52;7.13;;;15.00;99.90;;;;;;4953743;28;20039;-81
2022/10/05 03:35:04;;;;;;;9.43;7.30;;;14.90;99.90;;;;;;4953044;28;20051;-81
2022/10/05 03:37:35;;;;;;;11.00;7.75;;;14.90;99.90;;;;;;4955062;28;20043;-81
2022/10/05 03:40:20;;;;;;;8.80;7.78;;;14.80;99.90;;;;;;4961268;28;20224;-82
2022/10/05 03:42:56;;;;;;;8.38;7.35;;;14.80;99.90;;;;;;4958625;28;20054;-83
2022/10/05 03:45:30;;;;;;;10.00;7.55;;;14.80;99.90;;;;;;4955659;28;20050;-81
2022/10/05 03:48:32;;;;;;;10.40;7.13;;;14.80;99.90;;;;;;4956695;28;20043;-81
2022/10/05 03:51:16;;;;;;;8.30;7.28;;;14.80;99.90;;;;;;4949853;28;20039;-82
2022/10/05 03:54:04;;;;;;;9.68;7.15;;;14.80;99.90;;;;;;4932162;28;20045;-81
2022/10/05 03:56:36;;;;;;;9.50;7.70;;;14.80;99.90;;;;;;4952868;28;20064;-81
2022/10/05 03:59:37;;;;;;;11.15;8.23;;;14.80;99.90;;;;;;4953558;28;20043;-81
2022/10/05 04:02:21;;;;;;;12.45;7.22;;;14.80;99.90;;;;;;4947966;28;20045;-80
2022/10/05 04:04:57;;;;;;;12.13;7.97;;;14.80;99.90;;;;;;4950913;28;20065;-81
2022/10/05 04:07:36;;;;;;;10.70;7.75;;;14.80;99.90;;;;;;4954176;28;20047;-81
2022/10/05 04:10:09;;;;;;;11.43;8.00;;;14.70;99.90;;;;;;4935664;28;20042;-81
2022/10/05 04:12:40;;;;;;;11.00;8.65;;;14.80;99.90;;;;;;4957425;28;20043;-81
2022/10/05 04:15:18;;;;;;;10.95;7.68;;;14.80;99.90;;;;;;4939162;28;20041;-81
2022/10/05 04:17:47;;;;;;;13.80;8.00;;;14.90;99.90;;;;;;4954689;28;20563;-81
2022/10/05 04:20:38;;;;;;;14.35;8.40;;;14.90;99.90;;;;;;4952766;28;20059;-80
2022/10/05 04:23:16;;;;;;;12.80;8.70;;;14.90;99.90;;;;;;4950108;28;20042;-81
2022/10/05 04:25:54;;;;;;;12.40;8.07;;;14.90;99.90;;;;;;4933374;28;20043;-81
2022/10/05 04:28:52;;;;;;;13.40;8.82;;;14.90;99.90;;;;;;4958693;28;20047;-81
2022/10/05 04:31:31;;;;;;;10.07;8.35;;;14.90;99.90;;;;;;4955827;28;20216;-81
2022/10/05 04:34:08;;;;;;;11.82;9.07;;;14.90;99.90;;;;;;4954923;28;20038;-81
2022/10/05 04:36:47;;;;;;;14.48;9.23;;;14.80;99.90;;;;;;4937599;28;20121;-80
2022/10/05 04:39:41;;;;;;;13.55;8.98;;;14.80;99.90;;;;;;4955524;28;20069;-81
2022/10/05 04:42:33;;;;;;;13.32;9.48;;;14.70;99.90;;;;;;4939644;28;20042;-82
2022/10/05 04:45:01;;;;;;;16.10;9.30;;;14.80;99.90;;;;;;4939330;28;20046;-81
2022/10/05 04:47:38;;;;;;;14.25;10.30;;;14.70;99.90;;;;;;4956998;28;20082;-81
2022/10/05 04:50:21;;;;;;;14.18;9.77;;;14.70;99.90;;;;;;4958434;28;20051;-82
2022/10/05 04:53:16;;;;;;;11.73;9.45;;;14.70;99.90;;;;;;4972917;28;20044;-82
2022/10/05 04:56:00;;;;;;;15.93;9.95;;;14.60;99.90;;;;;;4963123;28;20039;-82
2022/10/05 04:58:53;;;;;;;15.73;10.38;;;14.60;99.90;;;;;;4944082;28;20398;-82
2022/10/05 05:01:58;;;;;;;12.18;9.90;;;14.50;99.90;;;;;;4938987;28;20059;-82
2022/10/05 05:05:11;;;;;;;14.23;10.02;;;14.50;99.90;;;;;;4937007;28;20047;-82
2022/10/05 05:08:05;;;;;;;17.23;10.63;;;14.50;99.90;;;;;;4942350;28;20050;-81
2022/10/05 05:10:52;;;;;;;13.98;10.50;;;14.40;99.90;;;;;;4956770;28;20079;-82
2022/10/05 05:13:42;;;;;;;13.05;10.10;;;14.40;99.90;;;;;;4972317;28;20126;-81
2022/10/05 05:16:30;;;;;;;14.73;10.88;;;14.40;99.90;;;;;;4955492;28;20035;-81
2022/10/05 05:19:05;;;;;;;16.02;10.55;;;14.30;99.90;;;;;;4960273;28;20127;-81
2022/10/05 05:21:52;;;;;;;16.15;11.50;;;14.30;99.90;;;;;;4958501;28;20051;-82
2022/10/05 05:24:42;;;;;;;14.77;11.55;;;14.30;99.90;;;;;;4958733;28;20058;-82
2022/10/05 05:27:10;;;;;;;13.90;11.32;;;14.40;99.90;;;;;;4943132;28;20129;-82
2022/10/05 05:29:46;;;;;;;19.05;11.60;;;14.40;99.90;;;;;;4962401;28;20047;-82
2022/10/05 05:32:53;;;;;;;15.27;11.88;;;14.30;99.90;;;;;;4954384;28;20050;-82
2022/10/05 05:35:50;;;;;;;17.80;11.18;;;14.30;99.90;;;;;;4873309;29;20143;-82
2022/10/05 05:38:43;;;;;;;14.20;11.27;;;14.30;99.90;;;;;;4943193;28;20046;-82
2022/10/05 05:41:15;;;;;;;16.33;11.48;;;14.30;99.90;;;;;;4955909;28;20061;-82
2022/10/05 05:44:21;;;;;;;14.93;11.90;;;14.30;99.90;;;;;;4954740;28;20038;-80
2022/10/05 05:47:00;;;;;;;14.00;11.25;;;14.30;99.90;;;;;;4937023;28;20047;-82
2022/10/05 05:49:51;;;;;;;16.42;11.70;;;14.30;99.90;;;;;;4943204;28;20042;-80
2022/10/05 05:52:23;;;;;;;20.80;12.23;;;14.40;99.90;;;;;;4956562;28;20039;-80
2022/10/05 05:55:12;;;;;;;15.18;11.48;;;14.40;99.90;;;;;;4956101;28;20865;-81
2022/10/05 05:57:45;;;;;;;14.50;11.55;;;14.40;99.90;;;;;;4954859;28;20446;-80
2022/10/05 06:00:13;;;;;;;;;;;14.40;99.90;;;;;;4955301;28;20050;-83
2022/10/05 06:02:47;;;;;;;15.48;11.90;;;14.30;99.90;;;;;;4953135;28;19917;-80
2022/10/05 06:05:42;;;;;;;16.67;12.02;;;14.40;99.90;;;;;;4943776;28;20058;-81
2022/10/05 06:08:32;;;;;;;16.33;12.30;;;14.40;99.90;;;;;;4939246;28;20042;-82
2022/10/05 06:11:03;;;;;;;16.70;12.05;;;14.30;99.90;;;;;;4960197;28;20051;-81
2022/10/05 06:13:34;;;;;;;14.43;12.25;;;14.40;99.90;;;;;;4958905;28;20134;-81
2022/10/05 06:16:13;;;;;;;17.83;12.43;;;14.30;99.90;;;;;;4960255;28;20050;-81
2022/10/05 06:18:44;;;;;;;16.98;12.70;;;14.30;99.90;;;;;;4950076;28;20633;-81
2022/10/05 06:21:25;;;;;;;17.30;12.75;;;14.30;99.90;;;;;;4950387;28;20070;-80
2022/10/05 06:24:01;;;;;;;17.95;12.07;;;14.30;99.90;;;;;;4959222;28;20398;-82
2022/10/05 06:26:52;;;;;;;16.52;12.38;;;14.40;99.90;;;;;;4963006;28;20077;-80
2022/10/05 06:29:25;;;;;;;17.10;11.95;;;14.40;99.90;;;;;;4958130;28;20150;-81
2022/10/05 06:32:25;;;;;;;15.27;11.88;;;14.40;99.90;;;;;;4942419;28;20043;-82
2022/10/05 06:35:05;;;;;;;14.13;12.10;;;14.40;99.90;;;;;;4942817;28;20080;-81
2022/10/05 06:37:43;;;;;;;15.93;11.50;;;14.50;99.90;;;;;;4934113;28;20466;-81
2022/10/05 06:40:14;;;;;;;13.52;11.73;;;14.40;99.90;;;;;;4953152;28;20042;-81
2022/10/05 06:43:04;;;;;;;16.65;12.23;;;14.50;99.90;;;;;;4958011;28;20056;-81
2022/10/05 06:45:55;;;;;;;16.58;11.88;;;14.50;99.90;;;;;;4954014;28;20046;-81
2022/10/05 06:48:35;;;;;;;13.35;11.38;;;14.40;99.90;;;;;;4961042;28;20046;-81
2022/10/05 06:51:15;;;;;;;15.38;12.23;;;14.50;99.90;;;;;;4954444;28;20069;-81
2022/10/05 06:53:55;;;;;;;13.15;11.70;;;14.50;99.90;;;;;;4955151;28;20054;-82
2022/10/05 06:56:40;;;;;;;12.75;10.90;;;14.50;99.90;;;;;;4972418;28;20054;-84
2022/10/05 06:59:26;;;;;;;13.38;10.45;;;14.60;99.90;;;;;;4948419;28;20405;-81
2022/10/05 07:02:30;;;;;;;11.98;10.23;;;14.60;99.90;;;;;;4958876;28;20110;-81
2022/10/05 07:05:34;;;;;;;12.30;10.13;;;14.60;99.90;;;;;;4924129;28;20066;-82
2022/10/05 07:08:08;;;;;;;12.90;10.13;;;14.70;99.90;;;;;;4964990;28;20054;-82
2022/10/05 07:10:50;;;;;;;12.77;9.73;;;14.70;99.90;;;;;;4963162;28;20477;-82
2022/10/05 07:13:28;;;;;;;20.48;10.68;;;14.70;99.90;;;;;;4956788;28;20074;-81
2022/10/05 07:16:21;;;;;;;12.65;9.13;;;14.70;99.90;;;;;;4940160;28;20034;-82
2022/10/05 07:19:14;;;;;;;13.05;9.20;;;14.80;99.90;;;;;;4953827;28;20045;-81
2022/10/05 07:21:43;;;;;;;13.85;9.45;;;14.90;99.90;;;;;;4939023;28;20039;-82
2022/10/05 07:24:19;;;;;;;12.88;9.38;;;14.90;99.90;;;;;;4961943;28;20050;-81
2022/10/05 07:26:49;;;;;;;8.73;7.75;;;14.90;99.90;;;;;;4961696;28;20134;-80
2022/10/05 07:29:41;;;;;;;10.20;7.72;;;15.00;99.90;;;;;;4965599;28;20454;-81
2022/10/05 07:32:25;;;;;;;11.00;8.38;;;15.00;99.90;;;;;;4957700;28;20109;-82
2022/10/05 07:38:10;;;;;;;12.45;8.23;;;15.10;99.90;;;;;;4942039;28;20043;-82
2022/10/05 07:41:03;;;;;;;8.45;7.43;;;15.20;99.90;;;;;;4969946;28;20039;-81
2022/10/05 07:43:56;;;;;;;11.30;8.02;;;15.20;99.90;;;;;;4960631;28;20051;-82
2022/10/05 07:46:50;;;;;;;10.55;7.60;;;15.30;99.90;;;;;;4952838;28;20051;-81
2022/10/05 07:49:31;;;;;;;10.80;7.55;;;15.30;99.90;;;;;;4952762;28;20047;-81
2022/10/05 07:52:05;;;;;;;15.00;7.80;;;15.30;99.90;;;;;;4938127;28;20070;-81
2022/10/05 07:55:03;;;;;;;10.20;7.63;;;15.30;99.90;;;;;;4967011;28;20047;-81
2022/10/05 07:57:43;;;;;;;9.48;7.43;;;15.40;99.90;;;;;;4944196;28;20042;-81
2022/10/05 08:00:23;;;;;;;9.25;7.50;;;15.40;99.90;;;;;;4965769;28;20050;-80
2022/10/05 08:03:01;;;;;;;9.95;7.22;;;15.40;99.90;;;;;;4935294;28;20084;-81
2022/10/05 08:05:32;;;;;;;11.15;7.50;;;15.50;99.90;;;;;;4945869;28;20075;-80
2022/10/05 08:08:37;;;;;;;9.00;7.40;;;15.60;99.90;;;;;;4948348;28;20046;-81
2022/10/05 08:11:20;;;;;;;7.95;6.85;;;15.60;99.90;;;;;;4944687;28;20407;-81
2022/10/05 08:14:04;;;;;;;8.30;6.60;;;15.60;99.90;;;;;;4941906;28;20031;-81
2022/10/05 08:16:36;;;;;;;9.65;6.88;;;15.70;99.90;;;;;;4940339;28;20051;-81
2022/10/05 08:19:19;;;;;;;8.98;7.22;;;15.70;99.90;;;;;;4958563;28;20043;-81
2022/10/05 08:21:56;;;;;;;9.68;7.07;;;15.80;99.90;;;;;;4969515;28;20052;-81
2022/10/05 08:24:40;;;;;;;8.02;6.85;;;15.80;99.90;;;;;;4952344;28;20070;-81
2022/10/05 08:27:22;;;;;;;9.73;6.45;;;15.80;99.90;;;;;;4940377;29;20052;-81
2022/10/05 08:30:11;;;;;;;10.83;6.80;;;15.80;99.90;;;;;;4967651;28;20077;-81
2022/10/05 08:32:40;;;;;;;6.43;5.72;;;15.90;99.90;;;;;;4954938;28;20165;-82
2022/10/05 08:35:20;;;;;;;10.27;6.55;;;15.90;99.90;;;;;;4959506;28;20449;-82
2022/10/05 08:37:47;;;;;;;7.32;6.50;;;15.90;99.90;;;;;;4930659;29;20217;-81
2022/10/05 08:40:28;;;;;;;7.70;6.50;;;16.00;99.90;;;;;;4951133;28;20047;-82
2022/10/05 08:43:01;;;;;;;10.80;7.75;;;16.00;99.90;;;;;;4943592;28;20047;-81
2022/10/05 08:45:32;;;;;;;11.00;5.85;;;16.00;99.90;;;;;;4947594;28;20050;-81
2022/10/05 08:48:16;;;;;;;7.75;5.93;;;16.10;99.90;;;;;;4939047;28;20063;-81
2022/10/05 08:51:06;;;;;;;9.07;5.85;;;16.10;99.90;;;;;;4953898;28;20457;-81
2022/10/05 08:53:46;;;;;;;8.13;5.50;;;16.10;99.90;;;;;;4954447;28;20047;-82
2022/10/05 08:56:34;;;;;;;5.75;5.00;;;16.10;99.90;;;;;;4957332;28;20046;-82
2022/10/05 08:59:41;;;;;;;7.28;4.72;;;16.20;99.90;;;;;;4964347;28;20047;-82
2022/10/05 09:02:25;;;;;;;15.73;5.35;;;16.20;99.90;;;;;;4943754;28;20071;-82
2022/10/05 09:05:16;;;;;;;8.75;5.20;;;16.30;99.90;;;;;;4946983;28;20050;-81
2022/10/05 09:08:19;;;;;;;5.50;4.63;;;16.30;99.90;;;;;;4963504;28;20047;-81
2022/10/05 09:11:02;;;;;;;6.18;4.28;;;16.30;99.90;;;;;;4940056;28;20046;-81
2022/10/05 09:14:01;;;;;;;12.57;4.38;;;16.30;99.90;;;;;;4954148;28;20056;-81
2022/10/05 09:17:15;;;;;;;6.35;4.15;;;16.30;99.90;;;;;;4932988;28;20089;-81
2022/10/05 09:20:05;;;;;;;7.72;4.60;;;16.40;99.90;;;;;;4946315;28;20174;-81
2022/10/05 09:22:56;;;;;;;8.27;4.82;;;16.40;99.90;;;;;;4946501;28;20052;-81
2022/10/05 09:25:25;;;;;;;5.15;3.65;;;16.40;99.90;;;;;;4955444;28;20051;-81
2022/10/05 09:27:56;;;;;;;4.63;3.60;;;16.40;99.90;;;;;;4945546;28;20085;-81
2022/10/05 09:30:29;;;;;;;5.35;3.75;;;16.40;99.90;;;;;;4949314;28;20409;-81
2022/10/05 09:33:03;;;;;;;4.22;3.35;;;16.40;99.90;;;;;;4940654;28;20058;-81
2022/10/05 09:35:50;;;;;;;4.32;3.75;;;16.50;99.90;;;;;;4959187;28;20101;-82
2022/10/05 09:38:34;;;;;;;4.72;3.60;;;16.50;99.90;;;;;;4945744;29;20118;-82
2022/10/05 09:41:35;;;;;;;5.53;3.78;;;16.60;99.90;;;;;;4953295;28;20153;-82
2022/10/05 09:44:15;;;;;;;5.47;4.07;;;16.60;99.90;;;;;;4904398;29;20526;-82
2022/10/05 09:46:56;;;;;;;5.75;4.15;;;16.60;99.90;;;;;;4947141;28;20046;-82
2022/10/05 09:49:41;;;;;;;13.52;4.18;;;16.50;99.90;;;;;;4960571;28;20051;-83
2022/10/05 09:52:45;;;;;;;6.35;4.25;;;16.50;99.90;;;;;;4939452;28;20050;-82
2022/10/05 09:55:38;;;;;;;5.38;4.03;;;16.50;99.90;;;;;;4960958;28;20473;-83
2022/10/05 09:58:38;;;;;;;8.55;4.15;;;16.50;99.90;;;;;;4951163;28;20046;-82
2022/10/05 10:01:31;;;;;;;5.05;4.30;;;16.50;99.90;;;;;;4959639;28;20417;-82
2022/10/05 10:04:19;;;;;;;4.85;4.35;;;16.50;99.90;;;;;;4957333;28;20074;-82
2022/10/05 10:06:53;;;;;;;6.40;4.50;;;16.60;99.90;;;;;;4961790;28;20481;-82
2022/10/05 10:09:42;;;;;;;7.47;4.13;;;16.50;99.90;;;;;;4955053;28;20050;-82
2022/10/05 10:12:32;;;;;;;7.78;4.60;;;16.50;99.90;;;;;;4936485;28;20047;-82
2022/10/05 10:15:28;;;;;;;6.32;4.50;;;16.50;99.90;;;;;;4953610;28;20058;-82
2022/10/05 10:18:16;;;;;;;7.82;4.75;;;16.50;99.90;;;;;;4959066;28;20051;-82
2022/10/05 10:20:59;;;;;;;7.03;4.60;;;16.60;99.90;;;;;;4960080;28;20117;-84
2022/10/05 10:23:49;;;;;;;7.05;4.38;;;16.60;99.90;;;;;;4947914;28;20052;-82
2022/10/05 10:26:34;;;;;;;6.90;4.40;;;16.60;99.90;;;;;;4954364;28;20121;-82
2022/10/05 10:29:31;;;;;;;10.82;4.70;;;16.60;99.90;;;;;;4939440;28;20061;-81
2022/10/05 10:32:00;;;;;;;4.75;4.18;;;16.70;99.90;;;;;;4959992;28;20043;-81
2022/10/05 10:34:58;;;;;;;5.78;4.25;;;16.70;99.90;;;;;;4953413;28;20073;-82
2022/10/05 10:37:38;;;;;;;5.35;3.90;;;16.70;99.90;;;;;;4942627;28;20046;-81
2022/10/05 10:40:37;;;;;;;5.75;4.07;;;16.70;99.90;;;;;;4957091;28;20101;-81
2022/10/05 10:43:28;;;;;;;4.22;3.33;;;16.80;99.90;;;;;;4968923;28;20043;-82
2022/10/05 10:46:10;;;;;;;3.97;3.60;;;16.70;99.90;;;;;;4941930;28;20053;-81
2022/10/05 10:48:47;;;;;;;5.75;3.80;;;16.80;99.90;;;;;;4960117;28;20057;-81
2022/10/05 10:51:29;;;;;;;4.78;3.40;;;16.90;99.90;;;;;;4964224;28;20050;-82
2022/10/05 10:54:37;;;;;;;4.20;3.40;;;16.90;99.90;;;;;;4956997;28;20042;-81
2022/10/05 10:57:14;;;;;;;4.15;3.28;;;17.00;99.90;;;;;;4966038;28;20209;-80
2022/10/05 11:00:06;;;;;;;3.60;3.30;;;17.00;99.90;;;;;;4936804;28;20146;-81
2022/10/05 11:02:41;;;;;;;5.85;3.35;;;17.10;99.90;;;;;;4939796;28;20047;-82
2022/10/05 11:05:37;;;;;;;5.55;3.38;;;17.10;99.90;;;;;;4956123;28;20421;-82
2022/10/05 11:08:36;;;;;;;4.65;3.30;;;17.20;99.90;;;;;;4950324;28;20035;-82
2022/10/05 11:11:30;;;;;;;3.10;2.78;;;17.30;99.90;;;;;;4952261;28;20041;-82
2022/10/05 11:14:09;;;;;;;5.00;2.92;;;17.40;99.90;;;;;;4952912;28;20188;-82
2022/10/05 11:16:56;;;;;;;11.35;3.10;;;17.40;99.90;;;;;;4937768;28;20046;-83
2022/10/05 11:19:37;;;;;;;4.68;2.83;;;17.40;99.90;;;;;;4923968;28;20047;-82
2022/10/05 11:22:31;;;;;;;5.95;2.42;;;17.40;99.90;;;;;;4950955;28;20176;-83
2022/10/05 11:25:24;;;;;;;3.95;2.58;;;17.40;99.90;;;;;;4947100;28;20413;-83
2022/10/05 11:28:09;;;;;;;5.47;2.83;;;17.50;99.90;;;;;;4935009;28;20042;-83
2022/10/05 11:31:16;;;;;;;6.55;4.00;;;17.60;99.90;;;;;;4939817;28;20046;-83
2022/10/05 11:34:06;;;;;;;4.50;2.38;;;17.70;99.90;;;;;;4937494;28;20043;-82
2022/10/05 11:36:53;;;;;;;6.22;2.80;;;17.70;99.90;;;;;;4947288;28;20038;-80
2022/10/05 11:39:41;;;;;;;5.50;3.00;;;17.80;99.90;;;;;;4952611;28;20619;-80
2022/10/05 11:42:51;;;;;;;6.53;2.80;;;17.80;99.90;;;;;;4933745;29;20043;-78
2022/10/05 11:45:24;;;;;;;10.63;2.78;;;17.70;99.90;;;;;;4939406;28;20124;-79
2022/10/05 11:48:12;;;;;;;4.10;2.80;;;17.60;99.90;;;;;;4950520;28;20145;-80
2022/10/05 11:51:06;;;;;;;3.65;2.67;;;17.50;99.90;;;;;;4952243;28;20130;-79
2022/10/05 11:53:39;;;;;;;6.53;3.58;;;17.30;99.90;;;;;;4909021;28;20142;-80
2022/10/05 11:56:22;;;;;;;9.05;3.60;;;17.30;99.90;;;;;;4955954;28;20045;-79
2022/10/05 11:59:11;;;;;;;8.18;3.10;;;17.30;99.90;;;;;;4956087;28;20117;-79
2022/10/05 12:01:46;;;;;;;5.57;2.92;;;17.20;99.90;;;;;;4950958;28;20520;-79
2022/10/05 12:04:44;;;;;;;6.38;2.95;;;17.10;99.90;;;;;;4935251;28;20055;-80
2022/10/05 12:07:38;;;;;;;5.18;3.13;;;17.10;99.90;;;;;;4936582;28;20482;-79
2022/10/05 12:10:22;;;;;;;9.77;3.53;;;17.20;99.90;;;;;;4950765;28;20151;-79
2022/10/05 12:12:57;;;;;;;7.32;3.20;;;17.10;99.90;;;;;;4953629;28;20125;-79
2022/10/05 12:15:52;;;;;;;4.47;3.10;;;17.10;99.90;;;;;;4949214;28;20119;-79
2022/10/05 12:18:37;;;;;;;5.78;3.00;;;17.10;99.90;;;;;;4939199;28;20109;-79
2022/10/05 12:21:26;;;;;;;7.95;3.20;;;17.20;99.90;;;;;;4950448;28;20235;-79
2022/10/05 12:24:07;;;;;;;7.03;3.00;;;17.10;99.90;;;;;;4948161;28;20113;-80
2022/10/05 12:26:48;;;;;;;6.25;3.33;;;17.10;99.90;;;;;;4934452;28;20409;-78
2022/10/05 12:29:40;;;;;;;6.35;2.95;;;17.20;99.90;;;;;;4955783;28;20043;-79
2022/10/05 12:32:11;;;;;;;5.95;3.22;;;17.10;99.90;;;;;;4967515;28;20081;-79
2022/10/05 12:34:47;;;;;;;6.50;3.42;;;17.10;99.90;;;;;;4951615;28;20480;-79
2022/10/05 12:37:30;;;;;;;7.22;3.60;;;17.20;99.90;;;;;;4947042;28;20039;-80
2022/10/05 12:40:19;;;;;;;6.82;3.30;;;17.20;99.90;;;;;;4942564;28;20066;-79
2022/10/05 12:43:03;;;;;;;8.90;3.38;;;17.20;99.90;;;;;;4927068;28;20042;-79
2022/10/05 12:45:32;;;;;;;6.03;3.60;;;17.20;99.90;;;;;;4946304;28;20043;-79
2022/10/05 12:48:22;;;;;;;7.78;3.70;;;17.20;99.90;;;;;;4947914;28;20038;-77
2022/10/05 12:51:08;;;;;;;6.20;3.17;;;17.20;99.90;;;;;;4949800;28;20043;-77
2022/10/05 12:54:01;;;;;;;7.75;3.15;;;17.20;99.90;;;;;;4947149;28;20074;-79
2022/10/05 12:56:50;;;;;;;4.22;3.15;;;17.30;99.90;;;;;;4951033;28;20039;-78
2022/10/05 12:59:35;;;;;;;4.05;3.20;;;17.30;99.90;;;;;;4952208;28;20059;-78
2022/10/05 13:02:23;;;;;;;4.43;2.80;;;17.40;99.90;;;;;;4953041;28;20054;-79
2022/10/05 13:05:38;;;;;;;5.55;3.15;;;17.40;99.90;;;;;;4955031;28;20109;-79
2022/10/05 13:08:29;;;;;;;5.60;2.78;;;17.40;99.90;;;;;;4950466;28;20051;-79
2022/10/05 13:11:11;;;;;;;7.00;2.85;;;17.40;99.90;;;;;;4953716;28;20043;-78
2022/10/05 13:13:54;;;;;;;4.28;3.00;;;17.50;99.90;;;;;;4955159;28;20046;-79
2022/10/05 13:16:44;;;;;;;6.63;3.05;;;17.50;99.90;;;;;;4953932;28;20057;-79
2022/10/05 13:19:09;;;;;;;5.13;3.03;;;17.60;99.90;;;;;;4952414;28;20062;-78
2022/10/05 13:21:53;;;;;;;9.18;2.60;;;17.60;99.90;;;;;;4938412;28;20047;-78
2022/10/05 13:24:48;;;;;;;3.95;2.67;;;17.60;99.90;;;;;;4952076;28;20039;-79
2022/10/05 13:27:21;;;;;;;6.63;3.03;;;17.70;99.90;;;;;;4933594;28;20055;-79
2022/10/05 13:29:49;;;;;;;4.53;3.17;;;17.80;99.90;;;;;;4950422;28;20510;-78
2022/10/05 13:32:35;;;;;;;5.90;3.10;;;17.90;99.90;;;;;;4936963;28;20070;-79
2022/10/05 13:35:33;;;;;;;6.65;2.75;;;18.00;99.90;;;;;;4967554;28;20051;-79
2022/10/05 13:38:06;;;;;;;5.97;2.70;;;18.20;99.90;;;;;;4940359;28;20054;-79
2022/10/05 13:41:01;;;;;;;4.72;2.70;;;18.20;99.90;;;;;;4949821;28;20057;-79
2022/10/05 13:43:54;;;;;;;4.63;2.75;;;18.30;99.90;;;;;;4921979;28;20058;-78
2022/10/05 13:46:20;;;;;;;6.60;2.67;;;18.30;99.90;;;;;;4957571;28;20047;-78
2022/10/05 13:49:25;;;;;;;4.68;2.50;;;18.30;99.90;;;;;;4953474;28;20080;-79
2022/10/05 13:52:09;;;;;;;4.68;2.50;;;18.30;99.90;;;;;;4961013;28;20077;-78
2022/10/05 13:54:54;;;;;;;4.50;2.85;;;18.30;99.90;;;;;;4952285;28;20047;-78
2022/10/05 13:57:43;;;;;;;4.57;2.65;;;18.30;99.90;;;;;;4941648;28;20046;-78
2022/10/05 14:00:21;;;;;;;4.90;2.70;;;18.30;99.90;;;;;;4954226;28;20069;-78
2022/10/05 14:02:50;;;;;;;3.03;2.55;;;18.20;99.90;;;;;;4935594;28;20042;-80
2022/10/05 14:05:23;;;;;;;6.60;3.25;;;18.30;99.90;;;;;;4956515;28;20047;-79